createdAt,value
2019-01-03T00:05:01.669Z,4.78
2019-01-03T00:10:10.816Z,4.89
2019-01-03T00:15:20.109Z,5.22
2019-01-03T00:20:29.229Z,4.98
2019-01-03T00:25:38.422Z,5.12
2019-01-03T00:30:47.825Z,5.20
2019-01-03T00:35:57.061Z,4.98
2019-01-03T00:41:06.279Z,5.20
2019-01-03T00:46:15.542Z,5.04
2019-01-03T00:51:24.731Z,4.95
2019-01-03T00:56:34.006Z,5.69
2019-01-03T01:01:43.178Z,5.80
2019-01-03T01:06:52.365Z,5.47
2019-01-03T01:12:01.574Z,5.23
2019-01-03T01:17:10.821Z,5.69
2019-01-03T01:22:20.014Z,19.42
2019-01-03T01:27:29.489Z,5.92
2019-01-03T01:32:38.658Z,6.00
2019-01-03T01:37:48.010Z,5.77
2019-01-03T01:42:57.148Z,6.51
2019-01-03T01:48:06.421Z,5.71
2019-01-03T01:53:15.566Z,5.56
2019-01-03T01:58:24.852Z,5.66
2019-01-03T02:03:34.078Z,5.89
2019-01-03T02:08:43.406Z,5.24
2019-01-03T02:13:52.501Z,5.22
2019-01-03T02:19:01.766Z,5.66
2019-01-03T02:24:10.964Z,5.52
2019-01-03T02:29:20.141Z,5.84
2019-01-03T02:34:29.268Z,6.93
2019-01-03T02:39:38.599Z,5.45
2019-01-03T02:44:47.942Z,5.47
2019-01-03T02:49:57.171Z,5.59
2019-01-03T02:55:06.334Z,5.54
2019-01-03T03:00:15.681Z,5.08
2019-01-03T03:05:25.158Z,4.99
2019-01-03T03:10:34.413Z,5.35
2019-01-03T03:15:43.563Z,5.28
2019-01-03T03:20:52.893Z,5.06
2019-01-03T03:26:02.047Z,5.20
2019-01-03T03:31:11.322Z,5.74
2019-01-03T03:36:20.658Z,5.29
2019-01-03T03:41:29.954Z,5.05
2019-01-03T03:46:39.075Z,5.31
2019-01-03T03:51:48.362Z,5.16
2019-01-03T03:56:57.718Z,4.90
2019-01-03T04:02:07.270Z,5.27
2019-01-03T04:07:16.462Z,5.03
2019-01-03T04:12:25.701Z,4.93
2019-01-03T04:17:34.898Z,5.55
2019-01-03T04:22:44.118Z,5.00
2019-01-03T04:27:53.241Z,5.70
2019-01-03T04:33:02.604Z,5.24
2019-01-03T04:38:11.744Z,5.98
2019-01-03T04:43:21.062Z,4.94
2019-01-03T04:48:30.254Z,5.14
2019-01-03T04:53:39.546Z,5.61
2019-01-03T04:58:48.639Z,5.43
2019-01-03T05:03:57.852Z,5.75
2019-01-03T05:09:06.973Z,5.73
2019-01-03T05:14:16.254Z,5.73
2019-01-03T05:19:25.377Z,5.74
2019-01-03T05:24:34.669Z,6.12
2019-01-03T05:29:43.890Z,5.09
2019-01-03T05:34:53.207Z,5.62
2019-01-03T05:40:02.318Z,6.14
2019-01-03T05:45:11.557Z,6.69
2019-01-03T05:50:20.681Z,7.07
2019-01-03T05:55:29.869Z,7.32
2019-01-03T06:00:39.053Z,7.43
2019-01-03T06:05:48.320Z,7.60
2019-01-03T06:10:57.479Z,7.44
2019-01-03T06:16:06.718Z,7.74
2019-01-03T06:21:15.927Z,7.84
2019-01-03T06:26:25.224Z,8.51
2019-01-03T06:31:34.336Z,8.84
2019-01-03T06:36:43.658Z,10.50
2019-01-03T06:41:52.833Z,9.61
2019-01-03T06:47:02.169Z,9.63
2019-01-03T06:52:11.385Z,9.82
2019-01-03T06:57:20.602Z,10.22
2019-01-03T07:02:29.728Z,9.69
2019-01-03T07:07:39.010Z,10.09
2019-01-03T07:12:48.173Z,10.21
2019-01-03T07:17:57.437Z,11.56
2019-01-03T07:23:09.346Z,10.57
2019-01-03T07:28:08.559Z,10.54
2019-01-03T07:33:17.717Z,11.19
2019-01-03T07:38:27.102Z,10.43
2019-01-03T07:43:36.130Z,10.77
2019-01-03T07:48:45.423Z,10.98
2019-01-03T07:53:54.598Z,10.92
2019-01-03T07:59:04.058Z,11.27
2019-01-03T08:04:13.178Z,12.62
2019-01-03T08:09:22.385Z,11.80
2019-01-03T08:14:31.558Z,11.71
2019-01-03T08:19:40.763Z,11.51
2019-01-03T08:24:49.892Z,11.55
2019-01-03T08:29:59.214Z,10.50
2019-01-03T08:35:08.714Z,10.88
2019-01-03T08:40:18.273Z,11.55
2019-01-03T08:45:27.420Z,9.36
2019-01-03T08:50:36.569Z,10.02
2019-01-03T08:55:45.816Z,9.42
2019-01-03T09:00:55.076Z,9.73
2019-01-03T09:06:04.229Z,9.39
2019-01-03T09:11:13.546Z,10.58
2019-01-03T09:16:22.691Z,11.92
2019-01-03T09:21:32.002Z,8.68
2019-01-03T09:26:41.145Z,8.56
2019-01-03T09:31:50.434Z,8.01
2019-01-03T09:36:59.541Z,7.99
2019-01-03T09:42:08.819Z,8.56
2019-01-03T09:47:17.975Z,9.74
2019-01-03T09:52:27.278Z,9.01
2019-01-03T09:57:36.650Z,10.17
2019-01-03T10:02:45.921Z,7.78
2019-01-03T10:07:55.046Z,9.13
2019-01-03T10:13:04.398Z,11.60
2019-01-03T10:18:13.602Z,7.79
2019-01-03T10:23:22.942Z,8.29
2019-01-03T10:28:32.357Z,7.74
2019-01-03T10:33:41.621Z,6.88
2019-01-03T10:38:51.056Z,7.10
2019-01-03T10:44:00.250Z,7.72
2019-01-03T10:49:09.618Z,7.16
2019-01-03T10:54:18.905Z,11.06
2019-01-03T10:59:28.028Z,8.96
2019-01-03T11:04:37.374Z,8.57
2019-01-03T11:09:46.522Z,7.02
2019-01-03T11:14:55.879Z,6.48
2019-01-03T11:20:05.033Z,6.50
2019-01-03T11:25:14.261Z,6.87
2019-01-03T11:30:23.434Z,7.45
2019-01-03T11:35:33.037Z,6.28
2019-01-03T11:40:42.195Z,6.04
2019-01-03T11:45:51.522Z,5.26
2019-01-03T11:51:00.874Z,7.04
2019-01-03T11:56:10.059Z,5.11
2019-01-03T12:01:19.241Z,5.25
2019-01-03T12:06:28.573Z,4.69
2019-01-03T12:11:37.839Z,4.87
2019-01-03T12:16:47.046Z,5.67
2019-01-03T12:21:56.145Z,5.54
2019-01-03T12:27:05.430Z,4.93
2019-01-03T12:32:14.889Z,5.28
2019-01-03T12:37:24.135Z,5.06
2019-01-03T12:42:33.488Z,4.50
2019-01-03T12:47:42.762Z,5.03
2019-01-03T12:52:52.010Z,4.21
2019-01-03T12:58:01.336Z,17.26
2019-01-03T13:03:10.820Z,6.74
2019-01-03T13:08:20.120Z,5.29
2019-01-03T13:13:29.321Z,4.51
2019-01-03T13:18:38.562Z,4.69
2019-01-03T13:23:47.658Z,4.42
2019-01-03T13:28:56.917Z,4.50
2019-01-03T13:34:06.041Z,4.96
2019-01-03T13:39:15.367Z,4.72
2019-01-03T13:44:24.693Z,4.75
2019-01-03T13:49:33.973Z,4.57
2019-01-03T13:54:43.138Z,5.71
2019-01-03T13:59:52.371Z,5.41
2019-01-03T14:05:01.581Z,5.46
2019-01-03T14:10:10.850Z,5.67
2019-01-03T14:15:20.229Z,5.28
2019-01-03T14:20:29.430Z,5.99
2019-01-03T14:25:38.526Z,6.63
2019-01-03T14:30:47.825Z,5.99
2019-01-03T14:35:56.934Z,6.15
2019-01-03T14:41:06.239Z,8.02
2019-01-03T14:46:15.462Z,9.71
2019-01-03T14:51:24.864Z,11.54
2019-01-03T14:56:34.462Z,12.29
2019-01-03T15:01:44.506Z,10.61
2019-01-03T15:06:43.583Z,8.63
2019-01-03T15:11:52.853Z,8.33
2019-01-03T15:17:02.286Z,9.09
2019-01-03T15:22:11.558Z,13.68
2019-01-03T15:27:20.738Z,8.80
2019-01-03T15:32:29.955Z,10.02
2019-01-03T15:37:39.177Z,7.54
2019-01-03T15:42:48.494Z,7.44
2019-01-03T15:47:57.698Z,7.44
2019-01-03T15:53:06.983Z,7.81
2019-01-03T15:58:16.239Z,8.69
2019-01-03T16:03:25.459Z,8.46
2019-01-03T16:08:34.569Z,9.06
2019-01-03T16:13:44.115Z,9.50
2019-01-03T16:18:53.232Z,9.29
2019-01-03T16:24:02.462Z,8.29
2019-01-03T16:29:11.639Z,8.68
2019-01-03T16:34:20.910Z,7.86
2019-01-03T16:39:30.032Z,7.90
2019-01-03T16:44:39.353Z,7.66
2019-01-03T16:49:48.441Z,8.56
2019-01-03T16:54:57.655Z,18.85
2019-01-03T17:00:06.846Z,9.61
2019-01-03T17:05:16.340Z,10.65
2019-01-03T17:10:25.640Z,8.57
2019-01-03T17:15:35.203Z,7.25
2019-01-03T17:20:44.359Z,7.29
2019-01-03T17:25:53.629Z,7.82
2019-01-03T17:31:02.818Z,8.25
2019-01-03T17:36:12.091Z,7.04
2019-01-03T17:41:21.317Z,7.92
2019-01-03T17:46:30.660Z,7.30
2019-01-03T17:51:39.847Z,6.93
2019-01-03T17:56:49.566Z,9.06
2019-01-03T18:01:57.443Z,10.55
2019-01-03T18:07:05.362Z,10.63
2019-01-03T18:12:14.215Z,9.36
2019-01-03T18:17:24.238Z,8.83
2019-01-03T18:22:23.517Z,8.05
2019-01-03T18:27:33.088Z,7.87
2019-01-03T18:32:42.860Z,7.88
2019-01-03T18:37:52.339Z,7.23
2019-01-03T18:43:01.476Z,8.94
2019-01-03T18:48:10.738Z,7.84
2019-01-03T18:53:20.139Z,8.46
2019-01-03T18:58:29.358Z,8.59
2019-01-03T19:03:38.496Z,8.62
2019-01-03T19:08:47.812Z,8.97
2019-01-03T19:13:56.923Z,9.16
2019-01-03T19:19:04.928Z,9.35
2019-01-03T19:24:14.045Z,9.41
2019-01-03T19:29:23.322Z,10.60
2019-01-03T19:34:39.252Z,10.71
2019-01-03T19:39:38.461Z,8.45
2019-01-03T19:44:47.559Z,9.19
2019-01-03T19:49:56.905Z,8.14
2019-01-03T19:55:06.028Z,8.16
2019-01-03T20:00:15.312Z,8.58
2019-01-03T20:05:24.541Z,8.02
2019-01-03T20:10:33.861Z,10.16
2019-01-03T20:15:43.077Z,9.38
2019-01-03T20:20:53.008Z,9.24
2019-01-03T20:25:59.677Z,8.19
2019-01-03T20:31:08.910Z,9.96
2019-01-03T20:36:18.301Z,10.92
2019-01-03T20:41:27.577Z,10.34
2019-01-03T20:46:37.208Z,9.77
2019-01-03T20:51:46.548Z,9.45
2019-01-03T20:56:56.200Z,8.88
2019-01-03T21:02:05.683Z,10.21
2019-01-03T21:07:15.438Z,9.98
2019-01-03T21:12:25.248Z,8.96
2019-01-03T21:17:34.359Z,9.23
2019-01-03T21:22:43.625Z,9.98
2019-01-03T21:27:52.820Z,9.18
2019-01-03T21:33:01.993Z,9.04
2019-01-03T21:38:11.125Z,9.55
2019-01-03T21:43:20.406Z,9.94
2019-01-03T21:48:29.702Z,10.31
2019-01-03T21:53:38.965Z,11.58
2019-01-03T21:58:48.078Z,10.64
2019-01-03T22:03:57.407Z,11.24
2019-01-03T22:09:06.612Z,11.12
2019-01-03T22:14:15.866Z,10.11
2019-01-03T22:19:25.054Z,9.93
2019-01-03T22:24:34.391Z,9.34
2019-01-03T22:29:43.489Z,9.22
2019-01-03T22:34:52.728Z,9.25
2019-01-03T22:40:01.864Z,9.18
2019-01-03T22:45:11.161Z,9.00
2019-01-03T22:50:20.272Z,9.27
2019-01-03T22:55:29.482Z,9.25
2019-01-03T23:00:38.682Z,9.33
2019-01-03T23:05:47.899Z,9.73
2019-01-03T23:10:57.271Z,9.69
2019-01-03T23:16:06.519Z,9.47
2019-01-03T23:21:15.736Z,8.38
2019-01-03T23:26:24.948Z,8.32
2019-01-03T23:31:34.169Z,7.55
2019-01-03T23:36:43.401Z,8.53
2019-01-03T23:41:52.522Z,8.25
2019-01-03T23:47:01.808Z,7.47
2019-01-03T23:52:10.975Z,7.72
2019-01-03T23:57:20.237Z,7.55
